Terminal Aerodrome Forecast
Issued by NWS Melbourne, FL

Home | Current Version | Previous Version | Text Only | Print | Product List | Glossary On
Versions: 1 2 3 4 5 6 7 8 9 10 11 12 13
000
FTUS42 KMLB 210500
TAFMLB
TAF
KMLB 210535Z 2106/2206 19003KT P6SM SCT050 BKN150 OVC250
     FM211400 23005KT P6SM FEW040 BKN120 OVC250
     FM211800 09007KT P6SM SCT040 BKN150 OVC250
     FM220000 21003KT P6SM SCT090 BKN250=

USA.gov is the U.S. government's official web portal to all federal, state and local government web resources and services.